Warner Springs, California
Current Conditions -  °F | °C
As of 12:53 PM on Tuesday 25 Nov 2014 (Local Time) from KRNM Reporting Station
Clear Clear  
Wind Chill: 77°   Ceiling: Unl
Heat Index: 77°   Visibility: 10mi
Dew Point:   Wind: 9mph
Humidity: 7%   Direction: 280°W
Pressure: 30.29"   Gusts: NA
Location:  33.28°N, 116.64°W
Report Text: KRNM 252053Z 28008KT 10SM CLR 25/M14 A3029 RMK AO2 SLP245 T02501139 57028
Loading
Personal Weather Stations






























Interactive Weather Map New forecast layout! Learn more

10-Day Weather Forecast

Advertisements
Track Severe Weather on mobile